Time;durP1;ratioP1;P1;durP2;ratioP2;P2;SDS_P1;SDS_P2;PMS_P1;PMS_P2;Temp;Humidity;BMP_temperature;BMP_pressure;BME280_temperature;BME280_humidity;BME280_pressure;Samples;Min_cycle;Max_cycle;Signal;HPM_P1;HPM_P2
2023/12/10 00:02:16;;;;;;;11.80;4.85;;;;;;;4.54;100.00;99566.84;5031628;28;20067;-68
2023/12/10 00:04:43;;;;;;;11.73;5.50;;;;;;;4.51;100.00;99556.25;5031523;28;20380;-67
2023/12/10 00:07:08;;;;;;;12.63;4.97;;;;;;;4.51;100.00;99561.50;5030218;28;20037;-67
2023/12/10 00:09:34;;;;;;;14.03;5.20;;;;;;;4.48;100.00;99576.16;5030191;28;20059;-67
2023/12/10 00:11:59;;;;;;;11.80;4.80;;;;;;;4.43;100.00;99568.09;5031535;28;20083;-68
2023/12/10 00:14:25;;;;;;;13.87;5.20;;;;;;;4.43;100.00;99568.09;5031388;28;20589;-68
2023/12/10 00:16:50;;;;;;;12.82;5.60;;;;;;;4.38;100.00;99576.53;5031426;28;20046;-68
2023/12/10 00:19:16;;;;;;;16.13;5.87;;;;;;;4.37;100.00;99572.13;5031347;28;20430;-68
2023/12/10 00:21:41;;;;;;;9.00;4.10;;;;;;;4.37;100.00;99580.88;5031327;28;20045;-69
2023/12/10 00:24:06;;;;;;;11.50;5.15;;;;;;;4.37;100.00;99575.66;5030992;28;20137;-67
2023/12/10 00:26:32;;;;;;;12.77;5.37;;;;;;;4.37;100.00;99566.91;5031260;28;20076;-68
2023/12/10 00:28:57;;;;;;;13.43;4.90;;;;;;;4.37;100.00;99577.34;5031296;28;20125;-68
2023/12/10 00:31:23;;;;;;;12.60;5.07;;;;;;;4.36;100.00;99579.06;5031426;28;20536;-67
2023/12/10 00:33:48;;;;;;;13.33;5.87;;;;;;;4.36;100.00;99579.06;5030604;28;20034;-68
2023/12/10 00:36:15;;;;;;;11.57;4.70;;;;;;;4.36;100.00;99576.47;5031106;28;20048;-66
2023/12/10 00:38:42;;;;;;;12.47;5.17;;;;;;;4.38;100.00;99576.53;5030811;28;20315;-68
2023/12/10 00:41:08;;;;;;;11.98;5.03;;;;;;;4.38;100.00;99571.31;5031096;28;20045;-67
2023/12/10 00:43:34;;;;;;;15.77;6.10;;;;;;;4.39;100.00;99568.75;5030898;28;20087;-67
2023/12/10 00:45:59;;;;;;;11.60;5.17;;;;;;;4.39;100.00;99571.38;5030729;28;20050;-68
2023/12/10 00:48:24;;;;;;;12.75;5.22;;;;;;;4.37;100.00;99569.53;5030933;28;20037;-68
2023/12/10 00:50:50;;;;;;;11.67;5.10;;;;;;;4.35;100.00;99562.50;5030915;28;20095;-68
2023/12/10 00:53:15;;;;;;;13.23;4.97;;;;;;;4.35;100.00;99556.38;5030614;28;20128;-68
2023/12/10 00:55:40;;;;;;;12.00;5.10;;;;;;;4.38;100.00;99555.63;5030493;28;20041;-68
2023/12/10 00:58:06;;;;;;;11.77;5.30;;;;;;;4.35;100.00;99552.03;5030687;28;20034;-67
2023/12/10 01:00:31;;;;;;;11.82;4.70;;;;;;;4.39;100.00;99544.34;5044270;28;20604;-66
2023/12/10 01:02:57;;;;;;;12.33;5.20;;;;;;;4.38;100.00;99556.53;5039576;28;20108;-67
2023/12/10 01:05:22;;;;;;;11.47;5.37;;;;;;;4.40;100.00;99540.91;5011673;28;20050;-68
2023/12/10 01:07:47;;;;;;;10.90;4.03;;;;;;;4.38;100.00;99538.22;5010700;28;20124;-68
2023/12/10 01:10:13;;;;;;;13.50;5.63;;;;;;;4.38;100.00;99539.94;5010679;28;20046;-67
2023/12/10 01:12:38;;;;;;;11.38;4.75;;;;;;;4.37;100.00;99540.75;5010850;28;20040;-68
2023/12/10 01:15:08;;;;;;;10.40;4.40;;;;;;;4.39;100.00;99541.75;5010840;28;20426;-68
2023/12/10 01:17:33;;;;;;;11.35;5.07;;;;;;;4.40;100.00;99543.50;5010853;28;20095;-68
2023/12/10 01:20:00;;;;;;;13.07;5.10;;;;;;;4.41;100.00;99556.66;5010943;28;20088;-66
2023/12/10 01:22:25;;;;;;;10.27;4.68;;;;;;;4.42;100.00;99552.31;5010692;28;20037;-67
2023/12/10 01:24:52;;;;;;;13.10;5.43;;;;;;;4.41;100.00;99556.66;5010651;28;20372;-68
2023/12/10 01:27:21;;;;;;;10.90;4.78;;;;;;;4.41;100.00;99561.88;5010768;28;20095;-67
2023/12/10 01:29:47;;;;;;;11.68;5.18;;;;;;;4.42;100.00;99557.56;5010560;28;20083;-67
2023/12/10 01:32:12;;;;;;;11.87;4.30;;;;;;;4.39;100.00;99563.53;5010760;28;20479;-68
2023/12/10 01:34:37;;;;;;;9.23;4.10;;;;;;;4.38;100.00;99561.75;5010725;28;20034;-68
2023/12/10 01:37:03;;;;;;;9.75;4.32;;;;;;;4.39;100.00;99566.13;5010440;28;20168;-67
2023/12/10 01:39:30;;;;;;;12.93;4.90;;;;;;;4.38;100.00;99569.59;5010495;28;20052;-68
2023/12/10 01:41:56;;;;;;;10.50;4.30;;;;;;;4.38;100.00;99568.69;5010509;28;20041;-67
2023/12/10 01:44:22;;;;;;;10.83;4.57;;;;;;;4.37;100.00;99580.88;5010748;28;20098;-68
2023/12/10 01:46:47;;;;;;;10.57;4.57;;;;;;;4.35;100.00;99577.28;5014483;28;20492;-67
2023/12/10 01:49:14;;;;;;;10.73;4.00;;;;;;;4.34;100.00;99580.75;5014502;28;20407;-68
2023/12/10 01:51:42;;;;;;;12.27;4.20;;;;;;;4.32;100.00;99583.28;5014492;28;20091;-68
2023/12/10 01:54:14;;;;;;;12.70;4.88;;;;;;;4.32;100.00;99585.00;5014402;28;20039;-68
2023/12/10 01:56:40;;;;;;;9.98;4.50;;;;;;;4.30;100.00;99584.00;5014188;28;20045;-67
2023/12/10 01:59:06;;;;;;;10.43;4.83;;;;;;;4.31;100.00;99585.81;5015150;28;20041;-69
2023/12/10 02:01:32;;;;;;;10.70;4.63;;;;;;;4.29;100.00;99590.94;5034081;28;20048;-66
2023/12/10 02:03:57;;;;;;;10.10;4.33;;;;;;;4.29;100.00;99592.69;5034085;28;20486;-70
2023/12/10 02:06:25;;;;;;;10.27;4.28;;;;;;;4.30;100.00;99604.91;5032538;28;20124;-67
2023/12/10 02:08:50;;;;;;;11.23;4.43;;;;;;;4.29;100.00;99600.53;5033817;28;20463;-68
2023/12/10 02:11:16;;;;;;;10.90;5.47;;;;;;;4.31;100.00;99591.94;5032832;28;20052;-68
2023/12/10 02:13:42;;;;;;;12.93;4.60;;;;;;;4.32;100.00;99587.59;5033907;28;20063;-68
2023/12/10 02:16:07;;;;;;;10.07;4.47;;;;;;;4.33;100.00;99589.41;5033804;28;20072;-68
2023/12/10 02:18:32;;;;;;;12.77;5.20;;;;;;;4.33;100.00;99594.63;5033764;28;20037;-67
2023/12/10 02:20:58;;;;;;;12.40;4.67;;;;;;;4.32;100.00;99593.72;5033742;28;20079;-67
2023/12/10 02:23:59;;;;;;;12.27;5.38;;;;;;;4.30;100.00;99589.22;5033258;28;20422;-67
2023/12/10 02:26:25;;;;;;;12.17;5.47;;;;;;;4.30;100.00;99590.13;5033015;28;20484;-66
2023/12/10 02:28:50;;;;;;;10.90;4.43;;;;;;;4.25;100.00;99591.63;5033283;28;20033;-66
2023/12/10 02:31:18;;;;;;;11.40;4.95;;;;;;;4.25;100.00;99582.91;5033462;28;20550;-66
2023/12/10 02:33:43;;;;;;;11.15;4.88;;;;;;;4.26;100.00;99595.16;5033217;28;20036;-66
2023/12/10 02:36:09;;;;;;;11.03;4.80;;;;;;;4.21;100.00;99596.66;5033207;28;20030;-66
2023/12/10 02:38:34;;;;;;;9.97;3.90;;;;;;;4.23;100.00;99588.06;5031993;28;20647;-66
2023/12/10 02:41:00;;;;;;;10.17;4.60;;;;;;;4.23;100.00;99587.19;5033267;28;20091;-66
2023/12/10 02:43:25;;;;;;;11.20;4.23;;;;;;;4.22;100.00;99590.59;5033105;28;20130;-66
2023/12/10 02:45:50;;;;;;;10.63;4.35;;;;;;;4.20;100.00;99594.84;5033225;28;20045;-66
2023/12/10 02:48:21;;;;;;;10.33;4.30;;;;;;;4.20;100.00;99590.53;5033035;28;20057;-66
2023/12/10 02:50:47;;;;;;;10.45;4.53;;;;;;;4.19;100.00;99585.25;5032922;28;20041;-66
2023/12/10 02:53:12;;;;;;;9.53;4.17;;;;;;;4.17;100.00;99587.78;5032990;28;20036;-66
2023/12/10 02:55:38;;;;;;;10.18;4.30;;;;;;;4.19;100.00;99590.47;5031153;28;20116;-66
2023/12/10 02:58:03;;;;;;;10.33;4.43;;;;;;;4.16;100.00;99591.22;5032768;28;20037;-66
2023/12/10 03:00:29;;;;;;;13.07;4.33;;;;;;;4.11;100.00;99595.31;5032643;28;20562;-66
2023/12/10 03:02:54;;;;;;;11.43;4.65;;;;;;;4.10;100.00;99603.06;5032744;28;20095;-66
2023/12/10 03:05:20;;;;;;;9.53;4.07;;;;;;;4.07;100.00;99606.44;5032953;28;20068;-67
2023/12/10 03:07:46;;;;;;;10.45;4.45;;;;;;;4.09;100.00;99609.16;5032584;28;20107;-66
2023/12/10 03:10:12;;;;;;;10.80;4.73;;;;;;;4.10;100.00;99617.03;5032731;28;20700;-67
2023/12/10 03:12:37;;;;;;;9.02;3.80;;;;;;;4.11;100.00;99618.84;5031270;28;20033;-67
2023/12/10 03:15:03;;;;;;;10.17;4.00;;;;;;;4.10;100.00;99624.88;5032607;28;20025;-66
2023/12/10 03:17:29;;;;;;;9.82;3.80;;;;;;;4.08;100.00;99631.75;5032460;28;20037;-66
2023/12/10 03:19:54;;;;;;;9.43;3.80;;;;;;;4.08;100.00;99633.47;5032247;28;20041;-66
2023/12/10 03:22:19;;;;;;;10.33;4.10;;;;;;;4.03;100.00;99635.88;5032336;28;20037;-66
2023/12/10 03:24:45;;;;;;;9.57;4.07;;;;;;;4.04;100.00;99635.06;5014388;28;20037;-66
2023/12/10 03:27:10;;;;;;;8.80;3.63;;;;;;;4.05;100.00;99634.19;5032134;28;20045;-66
2023/12/10 03:29:35;;;;;;;10.20;4.20;;;;;;;4.03;100.00;99637.56;5031156;28;20041;-66
2023/12/10 03:32:01;;;;;;;9.97;4.07;;;;;;;4.03;100.00;99638.47;5031285;28;20041;-66
2023/12/10 03:34:26;;;;;;;9.43;3.97;;;;;;;4.05;100.00;99641.13;5032119;28;20040;-66
2023/12/10 03:36:52;;;;;;;10.07;4.17;;;;;;;4.02;100.00;99644.50;5032104;28;20414;-66
2023/12/10 03:39:17;;;;;;;11.00;4.80;;;;;;;3.99;100.00;99640.88;5032104;28;20117;-66
2023/12/10 03:41:42;;;;;;;20.20;4.90;;;;;;;3.99;100.00;99635.63;5032207;28;20033;-66
2023/12/10 03:44:08;;;;;;;10.27;4.20;;;;;;;3.97;100.00;99650.34;5031846;28;20459;-66
2023/12/10 03:46:33;;;;;;;8.57;3.63;;;;;;;3.98;100.00;99646.91;5032132;28;20037;-66
2023/12/10 03:48:58;;;;;;;9.43;4.00;;;;;;;4.00;100.00;99655.69;5031698;28;20411;-66
2023/12/10 03:51:24;;;;;;;10.00;4.30;;;;;;;4.00;100.00;99650.47;5031942;28;20037;-66
2023/12/10 03:53:50;;;;;;;11.90;3.47;;;;;;;4.00;100.00;99650.47;5031946;28;20116;-66
2023/12/10 03:56:16;;;;;;;8.23;3.43;;;;;;;4.03;100.00;99651.53;5029766;28;20048;-66
2023/12/10 03:58:41;;;;;;;10.63;4.18;;;;;;;4.04;100.00;99649.81;5030929;28;20583;-66
2023/12/10 04:01:07;;;;;;;8.97;3.97;;;;;;;4.03;100.00;99654.16;5030227;28;20072;-66
2023/12/10 04:03:33;;;;;;;10.17;4.07;;;;;;;4.04;100.00;99657.66;5032114;28;20033;-66
2023/12/10 04:06:00;;;;;;;10.35;3.92;;;;;;;4.05;100.00;99659.44;5031477;28;20462;-66
2023/12/10 04:08:26;;;;;;;10.02;4.55;;;;;;;4.06;100.00;99667.34;5029761;28;20513;-66
2023/12/10 04:10:51;;;;;;;11.00;4.40;;;;;;;4.09;100.00;99656.19;5023128;28;20112;-66
2023/12/10 04:13:16;;;;;;;9.53;4.30;;;;;;;4.11;100.00;99660.63;5029690;28;20033;-66
2023/12/10 04:15:44;;;;;;;10.53;4.33;;;;;;;4.11;100.00;99664.97;5029288;28;20037;-66
2023/12/10 04:18:11;;;;;;;9.95;4.13;;;;;;;4.14;100.00;99675.59;5030982;28;20121;-66
2023/12/10 04:20:37;;;;;;;9.40;3.95;;;;;;;4.14;100.00;99673.88;5031150;28;20154;-66
2023/12/10 04:23:02;;;;;;;12.67;3.90;;;;;;;4.15;100.00;99667.78;5030829;28;20124;-66
2023/12/10 04:25:28;;;;;;;10.27;4.13;;;;;;;4.17;100.00;99670.50;5029930;28;20296;-66
2023/12/10 04:27:54;;;;;;;9.20;4.07;;;;;;;4.18;100.00;99683.66;5028341;28;20044;-66
2023/12/10 04:30:19;;;;;;;9.20;3.87;;;;;;;4.18;100.00;99677.53;5030865;28;20033;-66
2023/12/10 04:32:45;;;;;;;9.30;4.22;;;;;;;4.17;100.00;99668.78;5030626;28;20082;-66
2023/12/10 04:35:11;;;;;;;10.03;4.10;;;;;;;4.19;100.00;99676.72;5030357;28;20123;-66
2023/12/10 04:37:36;;;;;;;9.80;4.00;;;;;;;4.17;100.00;99668.78;5030773;28;20503;-66
2023/12/10 04:40:02;;;;;;;10.97;4.57;;;;;;;4.19;100.00;99679.31;5030672;28;20569;-66
2023/12/10 04:42:27;;;;;;;7.67;3.30;;;;;;;4.18;100.00;99685.34;5029779;28;20036;-66
2023/12/10 04:44:53;;;;;;;9.13;3.90;;;;;;;4.18;100.00;99674.91;5030525;28;20030;-66
2023/12/10 04:47:18;;;;;;;9.97;3.33;;;;;;;4.24;100.00;99685.66;5030612;28;20041;-66
2023/12/10 04:49:43;;;;;;;8.47;3.77;;;;;;;4.29;100.00;99692.00;5030595;28;20296;-66
2023/12/10 04:52:09;;;;;;;10.17;3.97;;;;;;;4.25;100.00;99690.94;5030128;28;20446;-66
2023/12/10 04:54:34;;;;;;;10.53;4.30;;;;;;;4.25;100.00;99684.81;5030524;28;20033;-66
2023/12/10 04:56:59;;;;;;;8.90;3.50;;;;;;;4.24;100.00;99693.50;5029778;28;20045;-65
2023/12/10 04:59:25;;;;;;;11.00;4.63;;;;;;;4.25;100.00;99701.41;5030665;28;20030;-66
2023/12/10 05:01:51;;;;;;;9.90;4.33;;;;;;;4.29;100.00;99702.47;5029159;28;20413;-66
2023/12/10 05:04:16;;;;;;;10.27;4.20;;;;;;;4.29;100.00;99699.84;5030534;28;20036;-66
2023/12/10 05:06:41;;;;;;;7.55;3.80;;;;;;;4.30;100.00;99699.91;5029846;28;20087;-66
2023/12/10 05:09:10;;;;;;;10.87;4.37;;;;;;;4.29;100.00;99703.34;5030763;28;20494;-66
2023/12/10 05:11:35;;;;;;;11.25;4.78;;;;;;;4.33;100.00;99704.41;5030109;28;20029;-66
2023/12/10 05:14:00;;;;;;;9.43;3.67;;;;;;;4.34;100.00;99708.81;5029841;28;20025;-66
2023/12/10 05:16:26;;;;;;;10.83;3.73;;;;;;;4.36;100.00;99715.00;5030222;28;20060;-66
2023/12/10 05:18:51;;;;;;;10.40;4.27;;;;;;;4.38;100.00;99722.91;5030244;28;20052;-66
2023/12/10 05:21:17;;;;;;;10.00;4.37;;;;;;;4.36;100.00;99722.84;5029818;28;20103;-66
2023/12/10 05:23:42;;;;;;;9.75;3.97;;;;;;;4.34;100.00;99717.53;5030051;28;20493;-66
2023/12/10 05:26:07;;;;;;;11.57;4.50;;;;;;;4.38;100.00;99718.59;5027876;28;20112;-66
2023/12/10 05:28:33;;;;;;;11.03;4.10;;;;;;;4.40;100.00;99719.53;5030008;28;20453;-66
2023/12/10 05:30:58;;;;;;;8.93;3.77;;;;;;;4.43;100.00;99727.56;5030172;28;20049;-66
2023/12/10 05:33:23;;;;;;;10.43;4.43;;;;;;;4.44;100.00;99728.47;5030268;28;20021;-69
2023/12/10 05:35:49;;;;;;;9.73;4.40;;;;;;;4.45;100.00;99732.84;5028887;28;20137;-66
2023/12/10 05:38:14;;;;;;;13.23;4.20;;;;;;;4.46;100.00;99732.03;5025588;28;20029;-66
2023/12/10 05:40:40;;;;;;;9.37;3.77;;;;;;;4.47;100.00;99737.34;5029541;28;20045;-66
2023/12/10 05:43:05;;;;;;;10.03;4.57;;;;;;;4.44;100.00;99731.06;5025668;28;20034;-74
2023/12/10 05:45:30;;;;;;;14.00;4.40;;;;;;;4.47;100.00;99742.56;5029769;28;20470;-66
2023/12/10 05:47:56;;;;;;;9.93;4.47;;;;;;;4.50;100.00;99741.81;5028520;28;20294;-66
2023/12/10 05:50:21;;;;;;;9.30;4.30;;;;;;;4.54;100.00;99742.03;5035822;28;20048;-66
2023/12/10 05:52:47;;;;;;;9.57;3.73;;;;;;;4.56;100.00;99744.72;5029736;28;20037;-66
2023/12/10 05:55:12;;;;;;;10.27;4.73;;;;;;;4.55;100.00;99746.44;5029757;28;20048;-66
2023/12/10 05:57:37;;;;;;;14.80;4.53;;;;;;;4.56;100.00;99748.25;5033038;28;20041;-66
2023/12/10 06:00:04;;;;;;;10.57;4.33;;;;;;;4.56;100.00;99747.34;5029394;28;20694;-66
2023/12/10 06:02:30;;;;;;;11.23;5.00;;;;;;;4.55;100.00;99745.53;5028912;28;20042;-66
2023/12/10 06:04:55;;;;;;;11.13;5.07;;;;;;;4.52;100.00;99750.63;5026414;28;20595;-66
2023/12/10 06:07:21;;;;;;;11.02;4.38;;;;;;;4.50;100.00;99752.25;5028715;28;20084;-66
2023/12/10 06:09:46;;;;;;;11.27;4.53;;;;;;;4.47;100.00;99754.72;5028663;28;20079;-66
2023/12/10 06:12:11;;;;;;;13.47;4.73;;;;;;;4.48;100.00;99764.38;5028680;28;20041;-66
2023/12/10 06:14:37;;;;;;;11.40;4.60;;;;;;;4.47;100.00;99770.41;5028101;28;20052;-66
2023/12/10 06:17:02;;;;;;;8.77;3.73;;;;;;;4.44;100.00;99768.53;5028776;28;20056;-66
2023/12/10 06:19:28;;;;;;;10.35;4.03;;;;;;;4.44;100.00;99779.00;5028604;28;20045;-66
2023/12/10 06:21:53;;;;;;;12.07;4.50;;;;;;;4.42;100.00;99778.03;5028856;28;20034;-67
2023/12/10 06:24:18;;;;;;;11.40;4.60;;;;;;;4.41;100.00;99788.41;5029785;28;20091;-66
2023/12/10 06:26:44;;;;;;;10.93;4.90;;;;;;;4.42;100.00;99785.88;5030050;28;20128;-65
2023/12/10 06:29:09;;;;;;;9.77;4.33;;;;;;;4.42;100.00;99793.72;5030084;28;20034;-66
2023/12/10 06:31:35;;;;;;;11.30;4.73;;;;;;;4.39;100.00;99797.91;5032192;28;20756;-65
2023/12/10 06:34:00;;;;;;;11.40;3.97;;;;;;;4.33;100.00;99790.66;5033395;28;20044;-66
2023/12/10 06:36:26;;;;;;;10.70;4.75;;;;;;;4.31;100.00;99801.03;5033453;28;20537;-66
2023/12/10 06:38:51;;;;;;;12.30;4.70;;;;;;;4.30;100.00;99803.56;5031431;28;20045;-66
2023/12/10 06:41:16;;;;;;;10.83;4.60;;;;;;;4.30;100.00;99803.56;5013273;28;20030;-66
2023/12/10 06:43:42;;;;;;;10.97;4.20;;;;;;;4.30;100.00;99803.56;5013447;28;20034;-66
2023/12/10 06:46:07;;;;;;;10.43;4.57;;;;;;;4.29;100.00;99801.78;5013087;28;20038;-66
2023/12/10 06:48:33;;;;;;;14.00;4.80;;;;;;;4.28;100.00;99806.13;5013446;28;20118;-66
2023/12/10 06:51:00;;;;;;;9.80;4.13;;;;;;;4.29;100.00;99807.88;5011942;28;20801;-66
2023/12/10 06:53:26;;;;;;;12.43;4.95;;;;;;;4.27;100.00;99808.63;5012239;28;20033;-66
2023/12/10 06:55:51;;;;;;;11.43;4.40;;;;;;;4.24;100.00;99808.50;5013491;28;20030;-66
2023/12/10 06:58:16;;;;;;;10.93;4.53;;;;;;;4.23;100.00;99809.31;5031983;28;20041;-65
2023/12/10 07:00:42;;;;;;;10.50;5.03;;;;;;;4.21;100.00;99814.44;5031556;28;20287;-66
2023/12/10 07:03:07;;;;;;;12.73;5.30;;;;;;;4.90;100.00;99804.78;5033317;28;20039;-71
2023/12/10 07:05:33;;;;;;;12.83;5.47;;;;;;;5.53;100.00;99817.38;5038656;28;20041;-69
2023/12/10 07:07:58;;;;;;;14.20;5.73;;;;;;;5.89;100.00;99818.19;5051613;28;20041;-69
2023/12/10 07:10:23;;;;;;;18.55;7.15;;;;;;;6.32;100.00;99813.97;5033722;28;20121;-67
2023/12/10 07:12:53;;;;;;;13.23;5.10;;;;;;;5.96;100.00;99818.53;5037185;28;20075;-68
2023/12/10 07:15:18;;;;;;;14.20;5.45;;;;;;;5.57;100.00;99827.19;5052626;28;20043;-67
2023/12/10 07:17:44;;;;;;;12.00;5.23;;;;;;;5.30;100.00;99833.75;5051162;28;20033;-70
2023/12/10 07:20:10;;;;;;;11.50;4.65;;;;;;;5.10;100.00;99827.56;5045655;28;20095;-67
2023/12/10 07:22:35;;;;;;;9.17;4.10;;;;;;;4.99;100.00;99842.75;5047868;28;20043;-67
2023/12/10 07:25:04;;;;;;;9.60;4.00;;;;;;;4.94;100.00;99843.34;5035352;28;20041;-67
2023/12/10 07:27:30;;;;;;;12.07;4.23;;;;;;;4.92;100.00;99843.28;5034318;28;20403;-67
2023/12/10 07:29:55;;;;;;;11.60;3.88;;;;;;;4.91;100.00;99837.97;5052242;28;20040;-67
2023/12/10 07:32:21;;;;;;;13.20;4.20;;;;;;;4.96;100.00;99839.09;5051002;28;20044;-67
2023/12/10 07:34:46;;;;;;;8.53;3.73;;;;;;;4.99;100.00;99840.13;5052233;28;20376;-67
2023/12/10 07:37:12;;;;;;;10.65;4.10;;;;;;;5.30;100.00;99834.66;5047534;28;20040;-69
2023/12/10 07:39:39;;;;;;;11.90;3.63;;;;;;;5.68;100.00;99839.03;5040152;28;20090;-69
2023/12/10 07:42:04;;;;;;;10.85;3.83;;;;;;;5.72;100.00;99840.09;5032324;28;20130;-69
2023/12/10 07:44:29;;;;;;;11.67;3.80;;;;;;;5.88;100.00;99843.47;5032581;28;20057;-67
2023/12/10 07:49:07;;;;;;;9.88;3.55;;;;;;;5.89;100.00;99852.25;5003583;28;20710;-72
2023/12/10 07:53:51;;;;;;;7.63;3.00;;;;;;;5.81;100.00;99853.59;5012933;27;20371;-68
2023/12/10 07:56:17;;;;;;;7.43;2.90;;;;;;;5.78;100.00;99856.97;5022297;28;20569;-67
2023/12/10 07:58:42;;;;;;;9.88;3.22;;;;;;;5.79;100.00;99860.47;5023454;28;20124;-68
2023/12/10 08:01:09;;;;;;;9.13;2.60;;;;;;;5.80;100.00;99862.28;5023710;28;20049;-68
2023/12/10 08:03:35;;;;;;;11.10;3.08;;;;;;;5.79;100.00;99869.25;5024186;28;20057;-67
2023/12/10 08:06:00;;;;;;;11.20;3.10;;;;;;;5.80;100.00;99859.66;5023976;28;20038;-64
2023/12/10 08:08:26;;;;;;;8.17;2.80;;;;;;;5.80;100.00;99862.28;5023556;28;20041;-67
2023/12/10 08:10:51;;;;;;;7.95;2.70;;;;;;;5.85;100.00;99868.63;5023770;28;20038;-65
2023/12/10 08:13:16;;;;;;;10.87;2.70;;;;;;;5.86;100.00;99876.56;5041223;28;20499;-65
2023/12/10 08:15:42;;;;;;;11.90;3.57;;;;;;;5.90;100.00;99881.16;5063354;28;20119;-66
2023/12/10 08:18:07;;;;;;;19.97;6.47;;;;;;;5.95;100.00;99886.59;5059336;28;20028;-66
2023/12/10 08:20:33;;;;;;;22.58;6.43;;;;;;;6.00;100.00;99877.22;5080241;28;20490;-65
2023/12/10 08:22:59;;;;;;;23.83;7.63;;;;;;;6.06;100.00;99890.59;5020832;28;20037;-65
2023/12/10 08:25:24;;;;;;;29.95;9.23;;;;;;;6.14;100.00;99889.22;5062413;28;20041;-65
2023/12/10 08:27:50;;;;;;;19.60;6.30;;;;;;;6.23;100.00;99881.75;5055318;28;20400;-66
2023/12/10 08:30:16;;;;;;;18.88;5.95;;;;;;;6.30;100.00;99881.19;5084268;28;20404;-67
2023/12/10 08:32:41;;;;;;;11.63;3.63;;;;;;;6.35;100.00;99878.78;5105921;28;20043;-65
2023/12/10 08:35:07;;;;;;;9.23;3.20;;;;;;;6.41;100.00;99884.28;5022989;28;20183;-65
2023/12/10 08:37:32;;;;;;;10.50;2.40;;;;;;;6.48;100.00;99886.34;5021956;28;20029;-65
2023/12/10 08:39:58;;;;;;;18.87;2.93;;;;;;;6.57;100.00;99891.06;5015671;28;20117;-66
2023/12/10 08:42:24;;;;;;;10.17;1.70;;;;;;;6.67;100.00;99890.63;5001749;28;20034;-65
2023/12/10 08:44:49;;;;;;;9.38;2.22;;;;;;;6.77;100.00;99891.09;5034697;28;20038;-65
2023/12/10 08:47:14;;;;;;;9.93;2.20;;;;;;;6.85;100.00;99892.34;5003939;28;20916;-65
2023/12/10 08:49:40;;;;;;;8.60;1.90;;;;;;;6.94;100.00;99891.81;5090843;28;20130;-65
2023/12/10 08:52:05;;;;;;;7.67;1.93;;;;;;;7.05;100.00;99893.16;5087032;28;20769;-65
2023/12/10 08:54:31;;;;;;;7.73;1.83;;;;;;;7.17;100.00;99892.75;5094352;28;20031;-65
2023/12/10 08:56:56;;;;;;;9.10;1.90;;;;;;;7.28;100.00;99894.97;5077871;28;20048;-66
2023/12/10 08:59:21;;;;;;;7.97;2.00;;;;;;;7.41;100.00;99895.44;5026541;28;20034;-65
2023/12/10 09:01:47;;;;;;;13.63;2.00;;;;;;;7.51;100.00;99901.13;5023426;28;20067;-65
2023/12/10 09:04:12;;;;;;;13.57;1.70;;;;;;;7.63;100.00;99900.72;5010840;28;20290;-67
2023/12/10 09:06:38;;;;;;;10.33;1.70;;;;;;;7.73;100.00;99898.53;4971806;28;20046;-66
2023/12/10 09:09:03;;;;;;;7.30;2.10;;;;;;;7.86;100.00;99909.50;5025285;28;20037;-67
2023/12/10 09:11:30;;;;;;;7.73;2.30;;;;;;;7.99;100.00;99910.00;4990290;28;20121;-66
2023/12/10 09:13:56;;;;;;;7.93;1.47;;;;;;;8.11;100.00;99913.09;5009277;28;20296;-65
2023/12/10 09:16:22;;;;;;;9.35;1.77;;;;;;;8.17;100.00;99913.34;5009968;28;20040;-66
2023/12/10 09:18:48;;;;;;;19.43;2.03;;;;;;;8.20;100.00;99910.81;5009994;28;20053;-65
2023/12/10 09:21:13;;;;;;;10.55;1.80;;;;;;;8.20;100.00;99915.19;4995998;28;20034;-66
2023/12/10 09:23:39;;;;;;;16.77;2.27;;;;;;;8.21;100.00;99919.59;4982145;28;20106;-66
2023/12/10 09:26:04;;;;;;;11.90;2.30;;;;;;;8.20;100.00;99923.06;4971119;28;20049;-67
2023/12/10 09:28:30;;;;;;;12.67;2.20;;;;;;;8.20;100.00;99925.69;4977358;28;20034;-67
2023/12/10 09:30:56;;;;;;;8.65;1.40;;;;;;;8.20;100.00;99929.22;4999612;28;20679;-67
2023/12/10 09:33:22;;;;;;;8.95;2.35;;;;;;;8.22;100.00;99932.81;4991297;28;20057;-67
2023/12/10 09:35:47;;;;;;;14.40;2.23;;;;;;;8.23;100.00;99929.38;4991718;28;20038;-67
2023/12/10 09:38:13;;;;;;;16.43;1.93;;;;;;;8.27;100.00;99925.09;4990465;28;20545;-66
2023/12/10 09:40:38;;;;;;;16.13;1.70;;;;;;;8.34;100.00;99932.38;5022335;28;20290;-66
2023/12/10 09:43:04;;;;;;;12.30;2.03;;;;;;;8.37;100.00;99935.16;4991896;28;20607;-66
2023/12/10 09:45:29;;;;;;;15.75;2.45;;;;;;;8.41;100.00;99937.06;5005743;28;20037;-65
2023/12/10 09:47:55;;;;;;;13.13;2.00;;;;;;;8.44;100.00;99933.63;5012848;28;20068;-67
2023/12/10 09:50:21;;;;;;;17.10;1.83;;;;;;;8.48;100.00;99940.81;5091879;28;20036;-67
2023/12/10 09:52:47;;;;;;;11.03;2.37;;;;;;;8.48;100.00;99941.72;5092226;28;20431;-67
2023/12/10 09:55:12;;;;;;;19.75;2.70;;;;;;;8.50;100.00;99936.47;5090894;28;20032;-68
2023/12/10 09:57:38;;;;;;;13.03;2.70;;;;;;;8.53;100.00;99942.78;5047101;28;20513;-67
2023/12/10 10:00:06;;;;;;;18.00;3.03;;;;;;;8.54;100.00;99935.75;5008581;28;20421;-67
2023/12/10 10:02:32;;;;;;;13.27;1.65;;;;;;;8.58;100.00;99940.31;5009537;28;20446;-67
2023/12/10 10:04:57;;;;;;;13.90;1.98;;;;;;;8.58;100.00;99940.31;5082601;28;20229;-67
2023/12/10 10:07:23;;;;;;;15.53;2.27;;;;;;;8.56;100.00;99939.34;5073378;28;20024;-66
2023/12/10 10:09:48;;;;;;;12.80;2.03;;;;;;;8.52;100.00;99940.97;5091265;28;20091;-67
2023/12/10 10:12:16;;;;;;;15.93;2.60;;;;;;;8.51;100.00;99940.91;5091751;28;20051;-73
2023/12/10 10:14:55;;;;;;;15.05;1.75;;;;;;;8.49;100.00;99943.47;5086064;28;20047;-67
2023/12/10 10:17:28;;;;;;;12.85;1.63;;;;;;;8.48;100.00;99941.72;5081927;28;20389;-66
2023/12/10 10:19:54;;;;;;;9.27;1.75;;;;;;;8.45;100.00;99940.69;5005705;28;20060;-66
2023/12/10 10:22:22;;;;;;;14.15;1.58;;;;;;;8.45;100.00;99943.31;5045465;28;20117;-66
2023/12/10 10:24:48;;;;;;;12.93;1.80;;;;;;;8.45;100.00;99946.84;5033357;28;20040;-65
2023/12/10 10:27:13;;;;;;;14.15;2.50;;;;;;;8.45;100.00;99943.31;5060731;28;20089;-67
2023/12/10 10:29:40;;;;;;;18.73;2.13;;;;;;;8.46;100.00;99945.13;5047038;28;20054;-68
2023/12/10 10:32:08;;;;;;;16.65;2.35;;;;;;;8.45;100.00;99936.31;5053310;28;20066;-65
2023/12/10 10:34:34;;;;;;;9.90;1.40;;;;;;;8.44;100.00;99933.63;5043868;28;20065;-66
2023/12/10 10:36:59;;;;;;;21.88;2.97;;;;;;;8.44;100.00;99938.88;5035954;28;20443;-64
2023/12/10 10:39:25;;;;;;;18.43;2.53;;;;;;;8.47;100.00;99939.91;5077972;28;20124;-66
2023/12/10 10:41:50;;;;;;;11.70;1.75;;;;;;;8.48;100.00;99940.81;4993654;28;20042;-67
2023/12/10 10:44:16;;;;;;;13.82;2.55;;;;;;;8.49;100.00;99932.06;4997123;28;20075;-65
2023/12/10 10:46:42;;;;;;;14.27;2.17;;;;;;;8.50;100.00;99933.84;5008710;28;20128;-65
2023/12/10 10:49:07;;;;;;;14.77;2.20;;;;;;;8.46;100.00;99930.22;5010483;28;20020;-66
2023/12/10 10:51:33;;;;;;;11.40;1.60;;;;;;;8.46;100.00;99937.22;5017269;28;20106;-65
2023/12/10 10:54:02;;;;;;;13.43;2.10;;;;;;;8.45;100.00;99931.06;5042289;28;20038;-65
2023/12/10 10:56:31;;;;;;;15.15;1.90;;;;;;;8.45;100.00;99938.06;5039388;28;20472;-69
2023/12/10 10:58:58;;;;;;;12.00;1.73;;;;;;;8.46;100.00;99934.59;5091329;28;20050;-63
2023/12/10 11:01:40;;;;;;;14.43;1.83;;;;;;;8.42;100.00;99935.31;5038764;28;20018;-67
2023/12/10 11:04:06;;;;;;;9.65;1.45;;;;;;;8.42;100.00;99935.31;5054158;28;20407;-67
2023/12/10 11:06:36;;;;;;;16.98;1.92;;;;;;;8.41;100.00;99934.41;5092439;28;20395;-69
2023/12/10 11:09:01;;;;;;;15.65;2.33;;;;;;;8.40;100.00;99931.72;5069237;28;20130;-66
2023/12/10 11:11:27;;;;;;;14.43;2.20;;;;;;;8.40;100.00;99932.63;5011106;28;20478;-66
2023/12/10 11:13:54;;;;;;;12.13;1.33;;;;;;;8.40;100.00;99929.09;5009327;28;20128;-68
2023/12/10 11:16:24;;;;;;;9.07;1.70;;;;;;;8.41;100.00;99930.88;5007922;28;20489;-67
2023/12/10 11:18:57;;;;;;;14.20;1.85;;;;;;;8.39;100.00;99930.81;5007564;28;20034;-67
2023/12/10 11:21:23;;;;;;;16.40;2.03;;;;;;;8.43;100.00;99937.13;5008130;28;20096;-66
2023/12/10 11:23:49;;;;;;;11.90;2.10;;;;;;;8.42;100.00;99928.31;5007854;28;20439;-66
2023/12/10 11:26:14;;;;;;;22.83;3.33;;;;;;;8.44;100.00;99931.00;5035713;28;20032;-67